Decoded Metar for LFPG (PARIS CHARLES DE GAULLE in FRANCE) (IATA:CDG) | Meteo·Mobile Aviation Weather
aviador You're here:

LFPG Decoded Metar

PARIS CHARLES DE GAULLE in FRANCE
Report Time2019-04-20 10:00:00
UTC Time2019-04-20 10:14:44
Flight Rules vfr VFR
Wind040° at 10 kt
W.Decomp.*RWY 08: 7.8 kt HW 6.3 kt LCW
RWY 09: 6.6 kt HW 7.5 kt LCW
Visibility9999 m
Phenomena:N/A
Clouds:N/A
Expected CloudBase > 4,400 ft AGL from Temp-Dew spread
CeilingNone
Temp21°C (ISA +7)
Dew Point10°C (50% RH)
AAT17.5°C
QNH1026 hPa
Density Alt873 ft
Elevation358 ft
Report Wrong Elevation
Raw Report
LFPG 201000Z 04010KT 010V070 CAVOK 21/10 Q1026 NOSIG=

Extra information for LFPG:More info

Metar Taf Metar & Taf Last 4 Metars F.Rules Stats Wind Profile Meteogram Temp Stats Airport Information Weather charts Add Link Nearby VenuesMetar ALERT Operation Metar Decoded Social comments